createdAt,value
2018-12-02T00:00:48.181Z,10.20
2018-12-02T00:03:17.268Z,10.20
2018-12-02T00:05:46.362Z,10.30
2018-12-02T00:08:15.526Z,10.30
2018-12-02T00:10:44.687Z,10.40
2018-12-02T00:13:13.752Z,10.40
2018-12-02T00:15:43.170Z,10.40
2018-12-02T00:18:13.308Z,10.40
2018-12-02T00:20:42.690Z,10.40
2018-12-02T00:23:11.787Z,10.40
2018-12-02T00:25:40.897Z,10.40
2018-12-02T00:28:10.995Z,10.40
2018-12-02T00:30:40.872Z,10.40
2018-12-02T00:33:09.963Z,10.40
2018-12-02T00:35:39.697Z,10.40
2018-12-02T00:38:09.241Z,10.40
2018-12-02T00:40:38.419Z,10.50
2018-12-02T00:43:08.423Z,10.50
2018-12-02T00:45:38.190Z,10.50
2018-12-02T00:48:08.549Z,10.50
2018-12-02T00:50:38.021Z,10.50
2018-12-02T00:53:08.789Z,10.50
2018-12-02T00:55:39.640Z,10.60
2018-12-02T00:58:08.733Z,10.60
2018-12-02T01:00:38.535Z,10.60
2018-12-02T01:03:09.581Z,10.70
2018-12-02T01:05:38.672Z,10.70
2018-12-02T01:08:08.048Z,10.70
2018-12-02T01:10:37.990Z,10.60
2018-12-02T01:13:08.890Z,10.70
2018-12-02T01:15:39.021Z,10.70
2018-12-02T01:18:08.703Z,10.70
2018-12-02T01:20:38.812Z,10.60
2018-12-02T01:23:08.173Z,10.60
2018-12-02T01:25:37.579Z,10.50
2018-12-02T01:28:07.505Z,10.50
2018-12-02T01:30:36.563Z,10.60
2018-12-02T01:33:07.130Z,10.50
2018-12-02T01:35:36.702Z,10.50
2018-12-02T01:38:06.245Z,10.50
2018-12-02T01:40:35.302Z,10.50
2018-12-02T01:43:04.502Z,10.60
2018-12-02T01:45:34.055Z,10.60
2018-12-02T01:48:03.230Z,10.70
2018-12-02T01:50:32.268Z,10.70
2018-12-02T01:53:01.455Z,10.70
2018-12-02T01:55:30.510Z,10.60
2018-12-02T01:58:00.654Z,10.60
2018-12-02T02:00:29.730Z,10.60
2018-12-02T02:02:58.771Z,10.60
2018-12-02T02:05:27.917Z,10.60
2018-12-02T02:07:56.994Z,10.60
2018-12-02T02:10:28.281Z,10.70
2018-12-02T02:12:57.369Z,10.70
2018-12-02T02:15:26.448Z,10.70
2018-12-02T02:17:55.470Z,10.70
2018-12-02T02:20:25.589Z,10.80
2018-12-02T02:22:55.337Z,10.80
2018-12-02T02:25:24.719Z,10.80
2018-12-02T02:27:55.418Z,10.80
2018-12-02T02:30:25.614Z,10.80
2018-12-02T02:32:55.328Z,10.90
2018-12-02T02:35:25.114Z,10.80
2018-12-02T02:37:56.298Z,10.70
2018-12-02T02:40:28.221Z,10.70
2018-12-02T02:42:57.330Z,10.70
2018-12-02T02:45:26.449Z,10.70
2018-12-02T02:47:56.149Z,10.70
2018-12-02T02:50:26.072Z,10.70
2018-12-02T02:53:01.542Z,10.70
2018-12-02T02:55:30.555Z,10.80
2018-12-02T02:57:59.640Z,10.80
2018-12-02T03:00:29.063Z,10.80
2018-12-02T03:02:58.110Z,10.70
2018-12-02T03:05:27.146Z,10.70
2018-12-02T03:07:56.225Z,10.80
2018-12-02T03:10:25.251Z,10.80
2018-12-02T03:12:54.681Z,10.80
2018-12-02T03:15:24.162Z,10.90
2018-12-02T03:17:53.257Z,10.80
2018-12-02T03:20:23.148Z,10.80
2018-12-02T03:22:54.956Z,10.80
2018-12-02T03:25:25.037Z,10.70
2018-12-02T03:27:55.172Z,10.70
2018-12-02T03:30:24.996Z,10.80
2018-12-02T03:32:54.292Z,10.90
2018-12-02T03:35:24.475Z,10.90
2018-12-02T03:37:54.406Z,11.00
2018-12-02T03:40:24.500Z,11.10
2018-12-02T03:42:53.956Z,11.00
2018-12-02T03:45:28.003Z,11.00
2018-12-02T03:47:57.885Z,11.00
2018-12-02T03:50:26.987Z,10.90
2018-12-02T03:52:56.510Z,10.90
2018-12-02T03:55:25.538Z,10.90
2018-12-02T03:57:54.667Z,10.90
2018-12-02T04:00:25.059Z,11.00
2018-12-02T04:02:55.102Z,11.00
2018-12-02T04:05:25.158Z,11.00
2018-12-02T04:07:54.444Z,10.90
2018-12-02T04:10:24.597Z,10.80
2018-12-02T04:12:53.803Z,10.60
2018-12-02T04:15:24.727Z,10.40
2018-12-02T04:17:53.797Z,10.20
2018-12-02T04:20:22.869Z,10.00
2018-12-02T04:22:52.733Z,9.90
2018-12-02T04:25:23.826Z,9.90
2018-12-02T04:27:53.033Z,9.80
2018-12-02T04:30:22.959Z,9.90
2018-12-02T04:32:53.808Z,9.90
2018-12-02T04:35:25.123Z,9.80
2018-12-02T04:37:54.237Z,9.80
2018-12-02T04:40:23.755Z,9.80
2018-12-02T04:42:52.819Z,9.70
2018-12-02T04:45:22.248Z,9.70
2018-12-02T04:47:51.298Z,9.80
2018-12-02T04:50:22.929Z,9.70
2018-12-02T04:52:51.968Z,9.70
2018-12-02T04:55:21.024Z,9.70
2018-12-02T04:57:50.698Z,9.70
2018-12-02T05:00:20.478Z,9.60
2018-12-02T05:02:51.592Z,9.70
2018-12-02T05:05:24.299Z,9.70
2018-12-02T05:07:54.176Z,9.70
2018-12-02T05:10:23.190Z,9.70
2018-12-02T05:12:52.435Z,9.70
2018-12-02T05:15:22.720Z,9.70
2018-12-02T05:17:51.813Z,9.60
2018-12-02T05:20:22.796Z,9.70
2018-12-02T05:22:51.847Z,9.60
2018-12-02T05:25:20.838Z,9.60
2018-12-02T05:27:49.850Z,9.60
2018-12-02T05:30:20.732Z,9.60
2018-12-02T05:32:51.853Z,9.50
2018-12-02T05:35:21.155Z,9.60
2018-12-02T05:37:50.330Z,9.60
2018-12-02T05:40:23.720Z,9.60
2018-12-02T05:42:53.864Z,9.50
2018-12-02T05:45:23.332Z,9.50
2018-12-02T05:47:52.327Z,9.50
2018-12-02T05:50:23.442Z,9.50
2018-12-02T05:52:56.562Z,9.60
2018-12-02T05:55:30.795Z,9.60
2018-12-02T05:57:59.835Z,9.50
2018-12-02T06:00:28.888Z,9.50
2018-12-02T06:02:57.892Z,9.70
2018-12-02T06:05:26.979Z,9.70
2018-12-02T06:07:56.106Z,9.70
2018-12-02T06:10:25.199Z,9.60
2018-12-02T06:12:54.167Z,9.70
2018-12-02T06:15:23.314Z,9.70
2018-12-02T06:17:52.362Z,9.70
2018-12-02T06:20:22.592Z,9.70
2018-12-02T06:22:53.721Z,9.60
2018-12-02T06:25:22.798Z,9.60
2018-12-02T06:27:51.826Z,9.60
2018-12-02T06:30:23.774Z,9.70
2018-12-02T06:32:56.985Z,9.60
2018-12-02T06:35:26.053Z,9.60
2018-12-02T06:37:56.080Z,9.60
2018-12-02T06:40:27.335Z,9.60
2018-12-02T06:42:56.383Z,9.60
2018-12-02T06:45:25.436Z,9.60
2018-12-02T06:47:56.209Z,9.60
2018-12-02T06:50:26.236Z,9.70
2018-12-02T06:52:56.153Z,9.70
2018-12-02T06:56:02.678Z,9.70
2018-12-02T06:58:42.990Z,9.80
2018-12-02T07:03:32.451Z,9.70
2018-12-02T07:06:01.582Z,9.80
2018-12-02T07:08:31.720Z,9.60
2018-12-02T07:11:00.746Z,9.60
2018-12-02T07:13:29.833Z,9.60
2018-12-02T07:15:58.943Z,9.70
2018-12-02T07:18:30.154Z,9.70
2018-12-02T07:20:59.775Z,9.80
2018-12-02T07:23:32.354Z,9.80
2018-12-02T07:26:02.491Z,9.80
2018-12-02T07:28:37.931Z,9.80
2018-12-02T07:31:06.945Z,9.80
2018-12-02T07:33:36.047Z,9.80
2018-12-02T07:36:06.335Z,9.90
2018-12-02T07:38:39.286Z,9.90
2018-12-02T07:41:10.330Z,9.80
2018-12-02T07:43:39.433Z,9.80
2018-12-02T07:46:08.550Z,9.90
2018-12-02T07:48:37.584Z,9.90
2018-12-02T07:51:06.618Z,10.00
2018-12-02T07:53:35.644Z,10.00
2018-12-02T07:56:05.051Z,10.00
2018-12-02T07:58:34.094Z,10.00
2018-12-02T08:01:03.773Z,10.00
2018-12-02T08:03:33.039Z,10.00
2018-12-02T08:06:02.903Z,10.00
2018-12-02T08:08:32.533Z,10.00
2018-12-02T08:11:01.647Z,10.00
2018-12-02T08:13:31.623Z,10.00
2018-12-02T08:16:01.441Z,10.00
2018-12-02T08:18:30.971Z,10.00
2018-12-02T08:21:00.062Z,10.10
2018-12-02T08:23:29.064Z,10.10
2018-12-02T08:25:58.743Z,10.10
2018-12-02T08:28:27.821Z,10.10
2018-12-02T08:30:56.926Z,10.10
2018-12-02T08:33:26.331Z,10.10
2018-12-02T08:35:56.046Z,10.20
2018-12-02T08:38:25.175Z,10.20
2018-12-02T08:40:54.299Z,10.20
2018-12-02T08:43:23.400Z,10.20
2018-12-02T08:45:53.080Z,10.20
2018-12-02T08:48:22.176Z,10.20
2018-12-02T08:50:51.944Z,10.20
2018-12-02T08:53:21.083Z,10.20
2018-12-02T08:55:50.873Z,10.30
2018-12-02T08:58:21.215Z,10.20
2018-12-02T09:00:50.287Z,10.20
2018-12-02T09:03:19.323Z,10.20
2018-12-02T09:05:50.798Z,10.20
2018-12-02T09:08:19.947Z,10.20
2018-12-02T09:10:49.103Z,10.30
2018-12-02T09:13:18.178Z,10.20
2018-12-02T09:15:47.337Z,10.20
2018-12-02T09:18:16.401Z,10.30
2018-12-02T09:20:45.485Z,10.30
2018-12-02T09:23:14.668Z,10.30
2018-12-02T09:25:43.808Z,10.40
2018-12-02T09:28:12.839Z,10.40
2018-12-02T09:30:41.900Z,10.40
2018-12-02T09:33:10.975Z,10.40
2018-12-02T09:35:40.595Z,10.40
2018-12-02T09:38:09.766Z,10.40
2018-12-02T09:40:38.908Z,10.40
2018-12-02T09:43:08.186Z,10.50
2018-12-02T09:45:37.263Z,10.60
2018-12-02T09:48:06.959Z,10.60
2018-12-02T09:50:36.099Z,10.70
2018-12-02T09:53:05.750Z,10.70
2018-12-02T09:55:38.682Z,10.70
2018-12-02T09:58:09.700Z,10.70
2018-12-02T10:00:39.151Z,10.70
2018-12-02T10:03:08.215Z,10.70
2018-12-02T10:05:37.845Z,10.70
2018-12-02T10:08:07.002Z,10.70
2018-12-02T10:10:36.787Z,10.80
2018-12-02T10:13:10.546Z,10.80
2018-12-02T10:15:40.947Z,10.80
2018-12-02T10:18:10.627Z,10.90
2018-12-02T10:20:39.898Z,10.90
2018-12-02T10:23:09.342Z,10.90
2018-12-02T10:25:38.457Z,10.90
2018-12-02T10:28:08.510Z,10.90
2018-12-02T10:30:38.911Z,10.90
2018-12-02T10:33:08.237Z,10.90
2018-12-02T10:35:37.889Z,10.90
2018-12-02T10:38:08.088Z,11.00
2018-12-02T10:40:37.703Z,11.10
2018-12-02T10:43:07.199Z,11.10
2018-12-02T10:45:36.462Z,11.20
2018-12-02T10:48:13.217Z,11.10
2018-12-02T10:50:42.345Z,11.10
2018-12-02T10:53:19.811Z,11.10
2018-12-02T10:55:51.985Z,11.10
2018-12-02T10:58:23.506Z,11.10
2018-12-02T11:00:59.326Z,11.10
2018-12-02T11:03:28.372Z,11.10
2018-12-02T11:05:58.191Z,11.00
2018-12-02T11:08:28.071Z,11.00
2018-12-02T11:10:57.358Z,11.10
2018-12-02T11:13:26.549Z,11.00
2018-12-02T11:15:55.750Z,11.10
2018-12-02T11:18:25.490Z,11.10
2018-12-02T11:20:54.647Z,11.10
2018-12-02T11:23:24.474Z,11.20
2018-12-02T11:25:53.648Z,11.30
2018-12-02T11:28:22.874Z,11.40
2018-12-02T11:30:52.092Z,11.40
2018-12-02T11:33:21.878Z,11.40
2018-12-02T11:35:51.121Z,11.40
2018-12-02T11:38:20.226Z,11.50
2018-12-02T11:40:49.451Z,11.50
2018-12-02T11:43:19.300Z,11.60
2018-12-02T11:45:49.065Z,11.60
2018-12-02T11:48:18.799Z,11.70
2018-12-02T11:50:48.002Z,11.80
2018-12-02T11:53:17.075Z,11.80
2018-12-02T11:55:46.289Z,11.80
2018-12-02T11:58:15.480Z,12.00
2018-12-02T12:00:45.081Z,12.00
2018-12-02T12:03:14.275Z,12.10
2018-12-02T12:05:43.494Z,12.20
2018-12-02T12:08:12.950Z,12.20
2018-12-02T12:10:42.149Z,12.20
2018-12-02T12:13:11.196Z,12.20
2018-12-02T12:15:40.362Z,12.20
2018-12-02T12:18:10.068Z,12.20
2018-12-02T12:20:43.921Z,12.20
2018-12-02T12:23:18.515Z,12.20
2018-12-02T12:25:48.369Z,12.20
2018-12-02T12:28:17.626Z,12.20
2018-12-02T12:30:46.713Z,12.20
2018-12-02T12:33:15.786Z,12.20
2018-12-02T12:35:46.846Z,12.30
2018-12-02T12:38:15.915Z,12.30
2018-12-02T12:40:46.162Z,12.30
2018-12-02T12:43:25.411Z,12.40
2018-12-02T12:45:55.633Z,12.40
2018-12-02T12:48:25.071Z,12.40
2018-12-02T12:50:54.222Z,12.40
2018-12-02T12:53:23.400Z,12.40
2018-12-02T12:55:52.682Z,12.50
2018-12-02T12:58:21.825Z,12.50
2018-12-02T13:00:51.101Z,12.50
2018-12-02T13:03:20.188Z,12.50
2018-12-02T13:05:49.473Z,12.50
2018-12-02T13:08:19.059Z,12.60
2018-12-02T13:10:48.389Z,12.70
2018-12-02T13:13:18.411Z,12.60
2018-12-02T13:15:47.758Z,12.60
2018-12-02T13:18:16.861Z,12.70
2018-12-02T13:20:54.179Z,12.70
2018-12-02T13:23:23.305Z,12.80
2018-12-02T13:25:53.316Z,12.80
2018-12-02T13:28:22.699Z,12.70
2018-12-02T13:30:52.202Z,12.70
2018-12-02T13:33:21.487Z,12.90
2018-12-02T13:35:50.638Z,12.90
2018-12-02T13:38:19.703Z,12.90
2018-12-02T13:40:51.243Z,12.90
2018-12-02T13:43:23.094Z,13.00
2018-12-02T13:45:58.069Z,12.90
2018-12-02T13:48:27.215Z,12.90
2018-12-02T13:50:56.519Z,13.00
2018-12-02T13:53:25.686Z,13.00
2018-12-02T13:55:54.828Z,12.90
2018-12-02T13:58:24.546Z,12.90
2018-12-02T14:00:53.716Z,13.00
2018-12-02T14:03:23.585Z,13.00
2018-12-02T14:05:53.319Z,13.00
2018-12-02T14:08:22.551Z,13.00
2018-12-02T14:10:51.751Z,13.10
2018-12-02T14:13:26.760Z,13.10
2018-12-02T14:16:36.403Z,13.10
2018-12-02T14:19:11.231Z,13.10
2018-12-02T14:21:40.940Z,13.10
2018-12-02T14:24:11.472Z,13.10
2018-12-02T14:26:43.672Z,13.20
2018-12-02T14:29:15.942Z,13.20
2018-12-02T14:31:50.470Z,13.20
2018-12-02T14:34:19.543Z,13.20
2018-12-02T14:36:49.444Z,13.20
2018-12-02T14:39:18.538Z,13.20
2018-12-02T14:41:48.380Z,13.20
2018-12-02T14:44:18.096Z,13.20
2018-12-02T14:46:47.152Z,13.20
2018-12-02T14:49:17.030Z,13.20
2018-12-02T14:51:49.113Z,13.20
2018-12-02T14:54:18.356Z,13.30
2018-12-02T14:56:47.430Z,13.40
2018-12-02T14:59:16.590Z,13.40
2018-12-02T15:01:45.990Z,13.30
2018-12-02T15:04:15.196Z,13.40
2018-12-02T15:06:44.413Z,13.40
2018-12-02T15:09:13.489Z,13.40
2018-12-02T15:11:43.278Z,13.30
2018-12-02T15:14:12.681Z,13.30
2018-12-02T15:16:43.020Z,13.20
2018-12-02T15:19:13.145Z,13.20
2018-12-02T15:21:42.333Z,13.20
2018-12-02T15:24:12.175Z,13.20
2018-12-02T15:26:41.399Z,13.20
2018-12-02T15:29:11.434Z,13.10
2018-12-02T15:31:40.597Z,13.10
2018-12-02T15:34:09.738Z,13.10
2018-12-02T15:36:39.947Z,13.10
2018-12-02T15:39:10.769Z,13.10
2018-12-02T15:41:39.898Z,13.10
2018-12-02T15:44:09.036Z,13.10
2018-12-02T15:46:38.048Z,13.10
2018-12-02T15:49:07.174Z,13.10
2018-12-02T15:51:36.910Z,13.10
2018-12-02T15:54:06.528Z,13.10
2018-12-02T15:56:35.629Z,13.10
2018-12-02T15:59:08.352Z,13.10
2018-12-02T16:01:38.615Z,13.00
2018-12-02T16:04:07.807Z,13.00
2018-12-02T16:06:36.965Z,13.10
2018-12-02T16:09:09.156Z,13.10
2018-12-02T16:11:38.283Z,13.10
2018-12-02T16:14:07.570Z,13.20
2018-12-02T16:16:36.880Z,13.20
2018-12-02T16:19:06.229Z,13.20
2018-12-02T16:21:35.321Z,13.20
2018-12-02T16:24:04.725Z,13.20
2018-12-02T16:26:33.860Z,13.20
2018-12-02T16:29:03.566Z,13.20
2018-12-02T16:31:32.722Z,13.30
2018-12-02T16:34:02.340Z,13.30
2018-12-02T16:36:31.578Z,13.30
2018-12-02T16:39:00.672Z,13.30
2018-12-02T16:41:29.829Z,13.30
2018-12-02T16:43:58.928Z,13.30
2018-12-02T16:46:27.962Z,13.30
2018-12-02T16:48:57.109Z,13.30
2018-12-02T16:51:27.152Z,13.40
2018-12-02T16:53:56.698Z,13.40
2018-12-02T16:56:26.700Z,13.40
2018-12-02T16:59:02.052Z,13.40
2018-12-02T17:01:33.227Z,13.40
2018-12-02T17:04:03.344Z,13.40
2018-12-02T17:06:32.612Z,13.40
2018-12-02T17:09:01.762Z,13.40
2018-12-02T17:11:30.886Z,13.40
2018-12-02T17:14:00.933Z,13.40
2018-12-02T17:16:30.688Z,13.50
2018-12-02T17:18:59.887Z,13.50
2018-12-02T17:21:29.026Z,13.50
2018-12-02T17:23:58.877Z,13.50
2018-12-02T17:26:27.993Z,13.50
2018-12-02T17:28:57.483Z,13.50
2018-12-02T17:31:30.940Z,13.50
2018-12-02T17:34:00.135Z,13.50
2018-12-02T17:36:29.265Z,13.60
2018-12-02T17:39:03.933Z,13.60
2018-12-02T17:41:33.071Z,13.60
2018-12-02T17:44:02.386Z,13.60
2018-12-02T17:46:31.481Z,13.60
2018-12-02T17:49:01.227Z,13.60
2018-12-02T17:51:30.358Z,13.60
2018-12-02T17:54:00.305Z,13.60
2018-12-02T17:56:29.419Z,13.60
2018-12-02T17:58:59.126Z,13.60
2018-12-02T18:01:28.435Z,13.60
2018-12-02T18:03:58.969Z,13.60
2018-12-02T18:06:28.177Z,13.70
2018-12-02T18:08:57.738Z,13.60
2018-12-02T18:11:26.854Z,13.70
2018-12-02T18:13:56.058Z,13.80
2018-12-02T18:16:25.238Z,13.70
2018-12-02T18:18:54.814Z,13.60
2018-12-02T18:21:24.063Z,13.50
2018-12-02T18:23:53.790Z,13.40
2018-12-02T18:26:23.069Z,13.30
2018-12-02T18:28:52.291Z,13.30
2018-12-02T18:31:21.394Z,13.30
2018-12-02T18:33:50.419Z,13.30
2018-12-02T18:36:22.265Z,13.30
2018-12-02T18:38:51.564Z,13.30
2018-12-02T18:41:27.135Z,13.40
2018-12-02T18:43:56.265Z,13.40
2018-12-02T18:46:26.877Z,13.40
2018-12-02T18:48:56.024Z,13.40
2018-12-02T18:51:25.806Z,13.40
2018-12-02T18:53:55.156Z,13.40
2018-12-02T18:56:24.268Z,13.40
2018-12-02T18:58:53.590Z,13.50
2018-12-02T19:01:23.232Z,13.50
2018-12-02T19:03:52.299Z,13.50
2018-12-02T19:06:22.190Z,13.50
2018-12-02T19:08:51.744Z,13.50
2018-12-02T19:11:21.668Z,13.50
2018-12-02T19:13:50.636Z,13.60
2018-12-02T19:16:19.827Z,13.60
2018-12-02T19:18:56.353Z,13.70
2018-12-02T19:21:27.298Z,13.70
2018-12-02T19:23:57.875Z,13.70
2018-12-02T19:26:27.399Z,13.60
2018-12-02T19:28:56.603Z,13.70
2018-12-02T19:31:25.765Z,13.70
2018-12-02T19:33:56.595Z,13.60
2018-12-02T19:36:30.951Z,13.70
2018-12-02T19:39:00.083Z,13.70
2018-12-02T19:41:29.218Z,13.70
2018-12-02T19:43:58.285Z,13.70
2018-12-02T19:46:27.548Z,13.70
2018-12-02T19:48:56.605Z,13.70
2018-12-02T19:51:25.795Z,13.70
2018-12-02T19:53:54.962Z,13.70
2018-12-02T19:56:24.058Z,13.70
2018-12-02T19:58:53.161Z,13.70
2018-12-02T20:01:22.213Z,13.70
2018-12-02T20:03:51.965Z,13.70
2018-12-02T20:06:21.171Z,13.70
2018-12-02T20:08:50.411Z,13.70
2018-12-02T20:11:19.516Z,13.70
2018-12-02T20:13:48.624Z,13.70
2018-12-02T20:16:19.191Z,13.70
2018-12-02T20:18:48.717Z,13.70
2018-12-02T20:21:19.891Z,13.70
2018-12-02T20:23:54.250Z,13.70
2018-12-02T20:26:23.298Z,13.70
2018-12-02T20:28:55.584Z,13.70
2018-12-02T20:31:26.664Z,13.70
2018-12-02T20:33:56.602Z,13.60
2018-12-02T20:36:25.697Z,13.60
2018-12-02T20:38:54.868Z,13.60
2018-12-02T20:41:23.948Z,13.60
2018-12-02T20:43:53.046Z,13.60
2018-12-02T20:46:22.218Z,13.70
2018-12-02T20:48:52.021Z,13.80
2018-12-02T20:51:21.715Z,13.80
2018-12-02T20:53:50.834Z,13.70
2018-12-02T20:56:20.379Z,13.70
2018-12-02T20:58:50.212Z,13.80
2018-12-02T21:01:19.286Z,13.80
2018-12-02T21:03:49.348Z,13.90
2018-12-02T21:06:20.133Z,13.90
2018-12-02T21:08:49.904Z,13.80
2018-12-02T21:11:19.005Z,13.80
2018-12-02T21:13:48.237Z,13.70
2018-12-02T21:16:17.461Z,13.60
2018-12-02T21:18:47.514Z,13.50
2018-12-02T21:21:16.751Z,13.50
2018-12-02T21:23:46.260Z,13.40
2018-12-02T21:26:15.384Z,13.50
2018-12-02T21:28:44.534Z,13.50
2018-12-02T21:31:13.616Z,13.50
2018-12-02T21:33:43.859Z,13.50
2018-12-02T21:36:13.060Z,13.50
2018-12-02T21:38:42.430Z,13.50
2018-12-02T21:41:11.654Z,13.50
2018-12-02T21:43:40.839Z,13.50
2018-12-02T21:46:10.006Z,13.40
2018-12-02T21:48:39.118Z,13.50
2018-12-02T21:51:08.360Z,13.40
2018-12-02T21:53:37.576Z,13.50
2018-12-02T21:56:06.926Z,13.40
2018-12-02T21:58:35.987Z,13.40
2018-12-02T22:01:10.432Z,13.60
2018-12-02T22:03:39.513Z,13.50
2018-12-02T22:06:08.659Z,13.50
2018-12-02T22:08:37.808Z,13.50
2018-12-02T22:11:07.834Z,13.50
2018-12-02T22:13:43.245Z,13.40
2018-12-02T22:16:07.633Z,13.50
2018-12-02T22:18:36.667Z,13.50
2018-12-02T22:21:05.782Z,13.50
2018-12-02T22:23:34.963Z,13.50
2018-12-02T22:26:04.043Z,13.60
2018-12-02T22:28:33.132Z,13.60
2018-12-02T22:31:02.194Z,13.50
2018-12-02T22:33:31.263Z,13.40
2018-12-02T22:36:00.356Z,13.50
2018-12-02T22:38:29.455Z,13.50
2018-12-02T22:40:58.519Z,13.50
2018-12-02T22:43:27.603Z,13.60
2018-12-02T22:45:56.703Z,13.60
2018-12-02T22:48:25.787Z,13.60
2018-12-02T22:50:54.919Z,13.60
2018-12-02T22:53:23.975Z,13.60
2018-12-02T22:55:53.045Z,13.60
2018-12-02T22:58:22.152Z,13.50
2018-12-02T23:00:56.829Z,13.50
2018-12-02T23:03:25.859Z,13.40
2018-12-02T23:05:54.970Z,13.40
2018-12-02T23:08:23.984Z,13.40
2018-12-02T23:10:53.674Z,13.40
2018-12-02T23:13:22.802Z,13.30
2018-12-02T23:15:51.994Z,13.30
2018-12-02T23:18:21.099Z,13.20
2018-12-02T23:20:50.066Z,13.30
2018-12-02T23:23:19.246Z,13.30
2018-12-02T23:25:48.371Z,13.30
2018-12-02T23:28:18.382Z,13.30
2018-12-02T23:30:48.677Z,13.30
2018-12-02T23:33:17.714Z,13.40
2018-12-02T23:35:46.734Z,13.40
2018-12-02T23:38:15.913Z,13.30
2018-12-02T23:40:45.235Z,13.30
2018-12-02T23:43:14.270Z,13.30
2018-12-02T23:45:43.353Z,13.30
2018-12-02T23:48:12.999Z,13.30
2018-12-02T23:50:42.129Z,13.30
2018-12-02T23:53:11.200Z,13.30
2018-12-02T23:55:40.239Z,13.30
2018-12-02T23:58:09.241Z,13.20
